Williams, OR

5:05 AM PDT on October 25, 2014 (GMT -0700)
Brookings | Change Station
CLOSE
Current Station
Airport
Location: Brookings,
Elevation: 459 ft
Nearby Weather Stations

Elev 459 ft 42.07 °N, 124.29 °W | Updated 9 minutes ago

Rain
Rain
59 °F
Feels Like 59 °F
N
20
Wind Variable Wind from SSE
Gusts 34 mph

Today
High -- | Low -- °F
--% Chance of Precip.
Yesterday
High -- | Low -- °F
Precip. -- in
7:37 AM 6:15 PM
Waxing Crescent, 3% visible
Pressure 29.54 in
Visibility 7.0 miles
Clouds Overcast 3200 ft
Dew Point 53 °F
Humidity 80%
Rainfall 0.18 in
Snow Depth Not available.
UV 0 out of 12
Pollen .40 out of 12
Air Quality Not available.
Flu Activity Sporadic
METAR KBOK 251156Z AUTO 16017G30KT 7SM -RA OVC032 15/12 A2954 RMK AO2 58031 60018 70043 T01500116 10166 20127 RAE04B23E35B55 P0000 PK WND 15030/1151 SLP002

More Conditions Fewer Conditions

Pressure 29.54 in
Visibility 7.0 miles
Clouds Overcast 3200 ft
Dew Point 53 °F
Humidity 80%
Rainfall 0.18 in
Snow Depth Not available.
UV 0 out of 12
Pollen .40 out of 12
Air Quality Not available.
Flu Activity Sporadic
METAR KBOK 251156Z AUTO 16017G30KT 7SM -RA OVC032 15/12 A2954 RMK AO2 58031 60018 70043 T01500116 10166 20127 RAE04B23E35B55 P0000 PK WND 15030/1151 SLP002

More Conditions Fewer Conditions

10-Day Weather Forecast

Almanac

Astronomy

Oct. 25, 2014 Rise Set
Actual Time 7:37 AM PDT 6:15 PM PDT
Civil Twilight 7:09 AM PDT 6:44 PM PDT
Nautical Twilight 6:36 AM PDT 7:17 PM PDT
Astronomical Twilight 6:03 AM PDT 7:49 PM PDT
Moon 9:23 AM PDT 7:41 PM PDT
Length of Visible Light 11h 35m
Length of Day
10h 38m
Tomorrow will be 2m 38s shorter.
Waxing Crescent, 3% of the Moon is Illuminated
Today
Waxing Crescent
Oct 30
First Quarter
Nov 6
Full
Nov 14
Last Quarter
Nov 22
New

Today's Extremes

State Highs State Lows

Community

WunderPhotos

Upload Photos

1,764,816 photos uploaded!

Nearby

Snow Depth

Station Depth Elevation
Big Red Mountain 0 in 6250 ft
Fish Lake 0 in 4665 ft
Billie Creek Divide 0 in 5300 ft
Cold Springs Camp 0 in 6100 ft
Sevenmile Marsh 0 in 6200 ft

Earthquake Activity

City Distance Mag. Time & Date
No recent earthquake activity has been reported nearby.
Minimum magnitude displayed is 2.5.

Coastal Water Temperatures

Place Temperature
No Stations Reporting

Nearby Weather Stations